Country Fair, Ohio
Current Conditions -  °F | °C
As of 10:51 PM on Sunday 21 Dec 2014 (Local Time) from KCAK Reporting Station
Haze Haze  
Wind Chill: 19°   Ceiling: Unl
Heat Index: 26°   Visibility: 6mi
Dew Point: 19°   Wind: 6mph
Humidity: 75%   Direction: 90°E
Pressure: 30.19"   Gusts: NA
Location:  40.8156°N, 81.4331°W
Report Text: KCAK 220351Z 09005KT 6SM HZ FEW025 M03/M07 A3019 RMK AO2 SLP239 T10331072
Loading
Personal Weather Stations






























Interactive Weather Map New forecast layout! Learn more

10-Day Weather Forecast

Advertisements
Track Severe Weather on mobile